createdAt,value
2017-07-19T00:00:26.326Z,0
2017-07-19T00:01:28.873Z,0
2017-07-19T00:02:31.049Z,0
2017-07-19T00:03:33.196Z,0
2017-07-19T00:04:35.404Z,0
2017-07-19T00:05:37.569Z,0
2017-07-19T00:06:40.384Z,0
2017-07-19T00:07:42.598Z,0
2017-07-19T00:08:45.049Z,0
2017-07-19T00:09:47.243Z,0
2017-07-19T00:10:49.401Z,0
2017-07-19T00:11:51.877Z,0
2017-07-19T00:12:54.003Z,0
2017-07-19T00:13:56.143Z,0
2017-07-19T00:14:58.343Z,0
2017-07-19T00:16:00.497Z,0
2017-07-19T00:17:03.389Z,0
2017-07-19T00:18:05.520Z,0
2017-07-19T00:19:07.687Z,0
2017-07-19T00:20:10.481Z,0
2017-07-19T00:21:12.934Z,0
2017-07-19T00:22:15.388Z,0
2017-07-19T00:23:17.841Z,0
2017-07-19T00:24:19.974Z,0
2017-07-19T00:25:22.792Z,0
2017-07-19T00:26:25.275Z,0
2017-07-19T00:27:27.387Z,0
2017-07-19T00:28:29.843Z,0
2017-07-19T00:29:32.306Z,0
2017-07-19T00:30:34.449Z,0
2017-07-19T00:31:36.579Z,0
2017-07-19T00:32:38.706Z,0
2017-07-19T00:33:40.826Z,0
2017-07-19T00:34:42.935Z,0
2017-07-19T00:35:45.065Z,0
2017-07-19T00:36:47.523Z,0
2017-07-19T00:37:49.648Z,0
2017-07-19T00:38:51.767Z,0
2017-07-19T00:39:53.887Z,0
2017-07-19T00:40:56.735Z,0
2017-07-19T00:41:59.204Z,0
2017-07-19T00:43:01.655Z,0
2017-07-19T00:44:04.459Z,0
2017-07-19T00:45:06.929Z,0
2017-07-19T00:46:09.445Z,0
2017-07-19T00:47:12.263Z,0
2017-07-19T00:48:14.375Z,0
2017-07-19T00:49:16.498Z,0
2017-07-19T00:50:18.959Z,0
2017-07-19T00:51:21.084Z,0
2017-07-19T00:52:23.540Z,0
2017-07-19T00:53:25.666Z,0
2017-07-19T00:54:27.779Z,0
2017-07-19T00:55:29.928Z,0
2017-07-19T00:56:32.051Z,0
2017-07-19T00:57:34.188Z,0
2017-07-19T00:58:36.669Z,0
2017-07-19T00:59:38.775Z,0
2017-07-19T01:00:40.894Z,0
2017-07-19T01:01:42.978Z,0
2017-07-19T01:02:45.060Z,0
2017-07-19T01:03:47.149Z,0
2017-07-19T01:04:49.559Z,0
2017-07-19T01:05:51.634Z,0
2017-07-19T01:06:53.706Z,0
2017-07-19T01:07:55.796Z,0
2017-07-19T01:08:57.819Z,0
2017-07-19T01:09:59.839Z,0
2017-07-19T01:11:01.862Z,0
2017-07-19T01:12:03.879Z,0
2017-07-19T01:13:06.258Z,0
2017-07-19T01:14:08.642Z,0
2017-07-19T01:15:10.675Z,0
2017-07-19T01:16:13.051Z,0
2017-07-19T01:17:15.407Z,0
2017-07-19T01:18:18.120Z,0
2017-07-19T01:19:20.833Z,0
2017-07-19T01:20:23.199Z,0
2017-07-19T01:21:25.235Z,0
2017-07-19T01:22:27.593Z,0
2017-07-19T01:23:30.308Z,0
2017-07-19T01:24:32.349Z,0
2017-07-19T01:25:35.068Z,0
2017-07-19T01:26:37.446Z,0
2017-07-19T01:27:39.470Z,0
2017-07-19T01:28:41.493Z,0
2017-07-19T01:29:43.522Z,0
2017-07-19T01:30:45.555Z,0
2017-07-19T01:31:47.574Z,0
2017-07-19T01:32:49.600Z,0
2017-07-19T01:33:51.628Z,0
2017-07-19T01:34:53.650Z,0
2017-07-19T01:35:55.674Z,0
2017-07-19T01:36:58.074Z,0
2017-07-19T01:38:00.439Z,0
2017-07-19T01:39:03.136Z,0
2017-07-19T01:40:05.845Z,0
2017-07-19T01:41:07.869Z,0
2017-07-19T01:42:09.887Z,0
2017-07-19T01:43:11.912Z,0
2017-07-19T01:44:13.940Z,0
2017-07-19T01:45:15.960Z,0
2017-07-19T01:46:17.979Z,0
2017-07-19T01:47:20.008Z,0
2017-07-19T01:48:22.038Z,0
2017-07-19T01:49:24.058Z,0
2017-07-19T01:50:26.425Z,0
2017-07-19T01:51:28.453Z,0
2017-07-19T01:52:30.822Z,0
2017-07-19T01:53:32.856Z,0
2017-07-19T01:54:35.223Z,0
2017-07-19T01:55:37.244Z,0
2017-07-19T01:56:39.275Z,0
2017-07-19T01:57:41.286Z,0
2017-07-19T01:58:43.312Z,0
2017-07-19T01:59:45.352Z,0
2017-07-19T02:00:47.374Z,0
2017-07-19T02:01:49.397Z,0
2017-07-19T02:02:51.425Z,0
2017-07-19T02:03:53.779Z,0
2017-07-19T02:04:56.156Z,0
2017-07-19T02:05:58.173Z,0
2017-07-19T02:07:00.200Z,0
2017-07-19T02:08:02.558Z,0
2017-07-19T02:09:05.251Z,0
2017-07-19T02:10:07.675Z,0
2017-07-19T02:11:09.693Z,0
2017-07-19T02:12:11.707Z,0
2017-07-19T02:13:13.736Z,0
2017-07-19T02:14:16.100Z,0
2017-07-19T02:15:18.468Z,0
2017-07-19T02:16:20.519Z,0
2017-07-19T02:17:22.551Z,0
2017-07-19T02:18:24.597Z,0
2017-07-19T02:19:26.923Z,0
2017-07-19T02:20:28.944Z,0
2017-07-19T02:21:31.658Z,0
2017-07-19T02:22:33.677Z,0
2017-07-19T02:23:36.039Z,0
2017-07-19T02:24:38.055Z,0
2017-07-19T02:25:40.776Z,0
2017-07-19T02:26:42.800Z,0
2017-07-19T02:27:45.166Z,0
2017-07-19T02:28:47.864Z,0
2017-07-19T02:29:49.896Z,0
2017-07-19T02:30:52.587Z,0
2017-07-19T02:31:54.985Z,0
2017-07-19T02:32:57.020Z,0
2017-07-19T02:33:59.734Z,0
2017-07-19T02:35:02.131Z,0
2017-07-19T02:36:04.493Z,0
2017-07-19T02:37:06.860Z,0
2017-07-19T02:38:08.884Z,0
2017-07-19T02:39:10.910Z,0
2017-07-19T02:40:13.650Z,0
2017-07-19T02:41:16.009Z,0
2017-07-19T02:42:18.048Z,0
2017-07-19T02:43:20.069Z,0
2017-07-19T02:44:22.109Z,0
2017-07-19T02:45:24.829Z,0
2017-07-19T02:46:26.867Z,0
2017-07-19T02:47:29.230Z,0
2017-07-19T02:48:31.597Z,0
2017-07-19T02:49:33.619Z,0
2017-07-19T02:50:35.657Z,0
2017-07-19T02:51:37.689Z,0
2017-07-19T02:52:39.710Z,0
2017-07-19T02:53:41.736Z,0
2017-07-19T02:54:44.437Z,0
2017-07-19T02:55:46.455Z,0
2017-07-19T02:56:48.486Z,0
2017-07-19T02:57:50.517Z,0
2017-07-19T02:58:52.547Z,1
2017-07-19T02:59:55.605Z,1
2017-07-19T03:00:57.632Z,1
2017-07-19T03:01:59.656Z,1
2017-07-19T03:03:02.019Z,1
2017-07-19T03:04:04.410Z,1
2017-07-19T03:05:06.791Z,1
2017-07-19T03:06:09.153Z,1
2017-07-19T03:07:11.513Z,2
2017-07-19T03:08:13.540Z,2
2017-07-19T03:09:16.265Z,2
2017-07-19T03:10:18.638Z,2
2017-07-19T03:11:20.657Z,2
2017-07-19T03:12:23.039Z,2
2017-07-19T03:13:25.047Z,3
2017-07-19T03:14:27.068Z,3
2017-07-19T03:15:29.784Z,3
2017-07-19T03:16:31.812Z,3
2017-07-19T03:17:33.833Z,4
2017-07-19T03:18:36.194Z,4
2017-07-19T03:19:38.218Z,4
2017-07-19T03:20:40.241Z,4
2017-07-19T03:21:42.269Z,4
2017-07-19T03:22:44.293Z,5
2017-07-19T03:23:46.324Z,5
2017-07-19T03:24:48.682Z,5
2017-07-19T03:25:51.420Z,6
2017-07-19T03:26:53.434Z,6
2017-07-19T03:27:55.458Z,6
2017-07-19T03:28:57.810Z,6
2017-07-19T03:30:00.175Z,7
2017-07-19T03:31:02.559Z,7
2017-07-19T03:32:04.932Z,7
2017-07-19T03:33:06.955Z,8
2017-07-19T03:34:09.316Z,8
2017-07-19T03:35:11.343Z,8
2017-07-19T03:36:13.727Z,9
2017-07-19T03:37:16.461Z,9
2017-07-19T03:38:19.171Z,9
2017-07-19T03:39:21.222Z,10
2017-07-19T03:40:23.588Z,10
2017-07-19T03:41:25.622Z,10
2017-07-19T03:42:27.645Z,11
2017-07-19T03:43:29.673Z,11
2017-07-19T03:44:32.386Z,11
2017-07-19T03:45:34.406Z,12
2017-07-19T03:46:36.440Z,12
2017-07-19T03:47:38.459Z,13
2017-07-19T03:48:40.491Z,13
2017-07-19T03:49:42.515Z,13
2017-07-19T03:50:44.548Z,14
2017-07-19T03:51:46.582Z,14
2017-07-19T03:52:48.950Z,14
2017-07-19T03:53:51.658Z,15
2017-07-19T03:54:53.712Z,15
2017-07-19T03:55:55.727Z,15
2017-07-19T03:56:58.441Z,16
2017-07-19T03:58:00.810Z,16
2017-07-19T03:59:03.525Z,17
2017-07-19T04:00:05.561Z,17
2017-07-19T04:01:07.623Z,17
2017-07-19T04:02:09.653Z,18
2017-07-19T04:03:11.681Z,18
2017-07-19T04:04:14.048Z,19
2017-07-19T04:05:16.068Z,19
2017-07-19T04:06:18.768Z,20
2017-07-19T04:07:21.828Z,20
2017-07-19T04:08:23.844Z,20
2017-07-19T04:09:26.209Z,21
2017-07-19T04:10:28.243Z,21
2017-07-19T04:11:30.269Z,22
2017-07-19T04:12:32.977Z,22
2017-07-19T04:13:35.362Z,22
2017-07-19T04:14:37.389Z,23
2017-07-19T04:15:39.765Z,23
2017-07-19T04:16:42.133Z,23
2017-07-19T04:17:44.166Z,24
2017-07-19T04:18:46.189Z,24
2017-07-19T04:19:48.540Z,24
2017-07-19T04:20:50.573Z,25
2017-07-19T04:21:52.602Z,25
2017-07-19T04:22:54.628Z,26
2017-07-19T04:23:56.661Z,26
2017-07-19T04:24:58.688Z,26
2017-07-19T04:26:01.049Z,27
2017-07-19T04:27:03.404Z,27
2017-07-19T04:28:05.426Z,27
2017-07-19T04:29:07.474Z,28
2017-07-19T04:30:09.502Z,27
2017-07-19T04:31:11.878Z,28
2017-07-19T04:32:14.260Z,28
2017-07-19T04:33:16.312Z,28
2017-07-19T04:34:19.021Z,29
2017-07-19T04:35:21.380Z,29
2017-07-19T04:36:23.417Z,29
2017-07-19T04:37:25.440Z,30
2017-07-19T04:38:27.475Z,30
2017-07-19T04:39:29.507Z,30
2017-07-19T04:40:31.868Z,31
2017-07-19T04:41:34.242Z,31
2017-07-19T04:42:36.277Z,32
2017-07-19T04:43:38.665Z,32
2017-07-19T04:44:40.703Z,32
2017-07-19T04:45:42.734Z,34
2017-07-19T04:46:45.099Z,33
2017-07-19T04:47:47.458Z,34
2017-07-19T04:48:49.480Z,34
2017-07-19T04:49:52.202Z,35
2017-07-19T04:50:54.249Z,35
2017-07-19T04:51:56.277Z,35
2017-07-19T04:52:58.646Z,36
2017-07-19T04:54:00.681Z,36
2017-07-19T04:55:02.708Z,36
2017-07-19T04:56:05.080Z,37
2017-07-19T04:57:07.462Z,37
2017-07-19T04:58:09.828Z,37
2017-07-19T04:59:12.200Z,38
2017-07-19T05:00:14.890Z,38
2017-07-19T05:01:16.916Z,38
2017-07-19T05:02:19.651Z,39
2017-07-19T05:03:22.021Z,39
2017-07-19T05:04:24.380Z,39
2017-07-19T05:05:26.746Z,39
2017-07-19T05:06:29.116Z,40
2017-07-19T05:07:31.137Z,40
2017-07-19T05:08:33.162Z,40
2017-07-19T05:09:35.194Z,40
2017-07-19T05:10:37.227Z,41
2017-07-19T05:11:39.605Z,41
2017-07-19T05:12:41.975Z,41
2017-07-19T05:13:44.001Z,41
2017-07-19T05:14:46.033Z,42
2017-07-19T05:15:48.052Z,42
2017-07-19T05:16:50.078Z,42
2017-07-19T05:17:52.104Z,42
2017-07-19T05:18:54.476Z,43
2017-07-19T05:19:56.505Z,43
2017-07-19T05:20:58.539Z,43
2017-07-19T05:22:00.563Z,43
2017-07-19T05:23:02.939Z,43
2017-07-19T05:24:05.300Z,44
2017-07-19T05:25:07.680Z,44
2017-07-19T05:26:10.039Z,44
2017-07-19T05:27:12.753Z,45
2017-07-19T05:28:15.140Z,45
2017-07-19T05:29:17.168Z,45
2017-07-19T05:30:19.881Z,45
2017-07-19T05:31:22.596Z,46
2017-07-19T05:32:24.611Z,46
2017-07-19T05:33:26.654Z,46
2017-07-19T05:34:28.687Z,47
2017-07-19T05:35:30.717Z,47
2017-07-19T05:36:32.748Z,47
2017-07-19T05:37:35.112Z,47
2017-07-19T05:38:37.145Z,48
2017-07-19T05:39:39.510Z,48
2017-07-19T05:40:41.881Z,48
2017-07-19T05:41:43.929Z,49
2017-07-19T05:42:46.299Z,49
2017-07-19T05:43:48.331Z,49
2017-07-19T05:44:50.353Z,49
2017-07-19T05:45:52.724Z,50
2017-07-19T05:46:54.757Z,50
2017-07-19T05:47:56.799Z,50
2017-07-19T05:48:59.161Z,51
2017-07-19T05:50:01.189Z,51
2017-07-19T05:51:03.212Z,51
2017-07-19T05:52:05.592Z,51
2017-07-19T05:53:08.304Z,52
2017-07-19T05:54:10.349Z,51
2017-07-19T05:55:12.381Z,52
2017-07-19T05:56:14.414Z,52
2017-07-19T05:57:16.778Z,52
2017-07-19T05:58:18.817Z,52
2017-07-19T05:59:21.220Z,53
2017-07-19T06:00:23.243Z,52
2017-07-19T06:01:25.290Z,53
2017-07-19T06:02:27.319Z,53
2017-07-19T06:03:29.359Z,54
2017-07-19T06:04:31.398Z,54
2017-07-19T06:05:34.119Z,54
2017-07-19T06:06:36.195Z,55
2017-07-19T06:07:38.220Z,55
2017-07-19T06:08:40.235Z,55
2017-07-19T06:09:42.285Z,56
2017-07-19T06:10:44.988Z,56
2017-07-19T06:11:47.020Z,56
2017-07-19T06:12:49.041Z,57
2017-07-19T06:13:51.081Z,57
2017-07-19T06:14:53.793Z,57
2017-07-19T06:15:56.160Z,58
2017-07-19T06:16:58.190Z,58
2017-07-19T06:18:00.212Z,58
2017-07-19T06:19:02.578Z,59
2017-07-19T06:20:05.296Z,59
2017-07-19T06:21:07.660Z,59
2017-07-19T06:22:09.703Z,60
2017-07-19T06:23:11.725Z,60
2017-07-19T06:24:13.752Z,60
2017-07-19T06:25:15.789Z,60
2017-07-19T06:26:17.817Z,61
2017-07-19T06:27:19.840Z,61
2017-07-19T06:28:21.865Z,61
2017-07-19T06:29:23.915Z,62
2017-07-19T06:30:25.954Z,62
2017-07-19T06:31:28.655Z,62
2017-07-19T06:32:31.026Z,63
2017-07-19T06:33:33.054Z,63
2017-07-19T06:34:35.088Z,63
2017-07-19T06:35:37.459Z,63
2017-07-19T06:36:39.487Z,64
2017-07-19T06:37:41.524Z,64
2017-07-19T06:38:43.554Z,64
2017-07-19T06:39:45.585Z,65
2017-07-19T06:40:47.615Z,65
2017-07-19T06:41:50.660Z,65
2017-07-19T06:42:52.704Z,66
2017-07-19T06:43:55.070Z,66
2017-07-19T06:44:57.105Z,66
2017-07-19T06:45:59.138Z,66
2017-07-19T06:47:01.534Z,67
2017-07-19T06:48:04.592Z,67
2017-07-19T06:49:06.629Z,67
2017-07-19T06:50:08.659Z,67
2017-07-19T06:51:10.716Z,67
2017-07-19T06:52:12.751Z,68
2017-07-19T06:53:14.781Z,68
2017-07-19T06:54:17.153Z,68
2017-07-19T06:55:19.515Z,69
2017-07-19T06:56:21.872Z,69
2017-07-19T06:57:23.913Z,69
2017-07-19T06:58:25.937Z,69
2017-07-19T06:59:27.968Z,70
2017-07-19T07:00:30.339Z,70
2017-07-19T07:01:32.370Z,70
2017-07-19T07:02:35.118Z,71
2017-07-19T07:03:37.281Z,72
2017-07-19T07:04:39.409Z,72
2017-07-19T07:05:41.858Z,72
2017-07-19T07:06:43.979Z,72
2017-07-19T07:07:46.099Z,72
2017-07-19T07:08:48.219Z,73
2017-07-19T07:09:50.641Z,73
2017-07-19T07:10:52.751Z,73
2017-07-19T07:11:55.223Z,74
2017-07-19T07:12:57.374Z,74
2017-07-19T07:13:59.504Z,74
2017-07-19T07:15:01.662Z,75
2017-07-19T07:16:04.498Z,76
2017-07-19T07:17:06.892Z,75
2017-07-19T07:18:09.009Z,76
2017-07-19T07:19:11.172Z,76
2017-07-19T07:20:13.701Z,76
2017-07-19T07:21:16.160Z,77
2017-07-19T07:22:18.564Z,77
2017-07-19T07:23:20.635Z,77
2017-07-19T07:24:22.743Z,78
2017-07-19T07:25:24.929Z,78
2017-07-19T07:26:27.019Z,78
2017-07-19T07:27:29.159Z,79
2017-07-19T07:28:31.644Z,79
2017-07-19T07:29:33.960Z,79
2017-07-19T07:30:36.701Z,80
2017-07-19T07:31:39.125Z,80
2017-07-19T07:32:41.224Z,81
2017-07-19T07:33:43.665Z,81
2017-07-19T07:34:46.204Z,81
2017-07-19T07:35:48.275Z,82
2017-07-19T07:36:50.419Z,82
2017-07-19T07:37:52.486Z,83
2017-07-19T07:38:54.554Z,83
2017-07-19T07:39:56.659Z,84
2017-07-19T07:40:59.075Z,84
2017-07-19T07:42:01.169Z,85
2017-07-19T07:43:03.356Z,85
2017-07-19T07:44:05.488Z,85
2017-07-19T07:45:07.589Z,86
2017-07-19T07:46:09.747Z,86
2017-07-19T07:47:11.834Z,86
2017-07-19T07:48:13.920Z,87
2017-07-19T07:49:16.039Z,87
2017-07-19T07:50:18.124Z,88
2017-07-19T07:51:20.208Z,89
2017-07-19T07:52:22.337Z,89
2017-07-19T07:53:24.490Z,90
2017-07-19T07:54:26.977Z,91
2017-07-19T07:55:29.044Z,91
2017-07-19T07:56:31.196Z,92
2017-07-19T07:57:33.304Z,92
2017-07-19T07:58:35.402Z,93
2017-07-19T07:59:37.831Z,94
2017-07-19T08:00:39.909Z,95
2017-07-19T08:01:42.350Z,95
2017-07-19T08:02:44.438Z,96
2017-07-19T08:03:46.876Z,98
2017-07-19T08:04:49.070Z,99
2017-07-19T08:05:51.891Z,99
2017-07-19T08:06:53.955Z,100
2017-07-19T08:07:56.060Z,101
2017-07-19T08:08:58.208Z,102
2017-07-19T08:10:00.660Z,103
2017-07-19T08:11:03.137Z,104
2017-07-19T08:12:05.345Z,104
2017-07-19T08:13:07.769Z,104
2017-07-19T08:14:09.902Z,104
2017-07-19T08:15:12.059Z,101
2017-07-19T08:16:14.166Z,103
2017-07-19T08:17:16.310Z,103
2017-07-19T08:18:18.427Z,103
2017-07-19T08:19:20.855Z,102
2017-07-19T08:20:23.019Z,103
2017-07-19T08:21:25.214Z,102
2017-07-19T08:22:27.306Z,103
2017-07-19T08:23:29.588Z,103
2017-07-19T08:24:31.760Z,104
2017-07-19T08:25:34.170Z,104
2017-07-19T08:26:36.571Z,105
2017-07-19T08:27:38.686Z,105
2017-07-19T08:28:40.784Z,105
2017-07-19T08:29:43.268Z,107
2017-07-19T08:30:45.337Z,139
2017-07-19T08:31:47.454Z,234
2017-07-19T08:32:49.592Z,255
2017-07-19T08:33:51.690Z,199
2017-07-19T08:34:53.769Z,224
2017-07-19T08:35:55.934Z,254
2017-07-19T08:36:58.356Z,247
2017-07-19T08:38:00.854Z,252
2017-07-19T08:39:03.636Z,262
2017-07-19T08:40:06.067Z,283
2017-07-19T08:41:08.139Z,221
2017-07-19T08:42:10.201Z,335
2017-07-19T08:43:12.269Z,555
2017-07-19T08:44:14.678Z,560
2017-07-19T08:45:16.746Z,649
2017-07-19T08:46:19.147Z,621
2017-07-19T08:47:21.238Z,522
2017-07-19T08:48:23.951Z,569
2017-07-19T08:49:26.030Z,575
2017-07-19T08:50:28.093Z,561
2017-07-19T08:51:30.522Z,591
2017-07-19T08:52:32.602Z,557
2017-07-19T08:53:34.671Z,598
2017-07-19T08:54:36.753Z,579
2017-07-19T08:55:39.512Z,644
2017-07-19T08:56:41.581Z,604
2017-07-19T08:57:43.666Z,567
2017-07-19T08:58:45.740Z,515
2017-07-19T08:59:48.173Z,452
2017-07-19T09:00:50.230Z,472
2017-07-19T09:01:52.306Z,572
2017-07-19T09:02:54.372Z,595
2017-07-19T09:03:56.429Z,614
2017-07-19T09:04:59.200Z,598
2017-07-19T09:06:01.634Z,558
2017-07-19T09:07:04.377Z,569
2017-07-19T09:08:07.467Z,561
2017-07-19T09:09:09.894Z,554
2017-07-19T09:10:11.950Z,570
2017-07-19T09:11:14.029Z,608
2017-07-19T09:12:16.094Z,633
2017-07-19T09:13:18.858Z,576
2017-07-19T09:14:21.272Z,552
2017-07-19T09:15:23.344Z,577
2017-07-19T09:16:25.416Z,611
2017-07-19T09:17:27.820Z,627
2017-07-19T09:18:30.231Z,605
2017-07-19T09:19:32.304Z,627
2017-07-19T09:20:34.374Z,585
2017-07-19T09:21:36.438Z,585
2017-07-19T09:22:38.866Z,532
2017-07-19T09:23:40.945Z,549
2017-07-19T09:24:43.030Z,597
2017-07-19T09:25:45.081Z,553
2017-07-19T09:26:47.511Z,579
2017-07-19T09:27:49.588Z,613
2017-07-19T09:28:51.645Z,580
2017-07-19T09:29:53.715Z,610
2017-07-19T09:30:55.779Z,593
2017-07-19T09:31:57.856Z,571
2017-07-19T09:32:59.925Z,578
2017-07-19T09:34:02.006Z,624
2017-07-19T09:35:04.099Z,640
2017-07-19T09:36:06.191Z,573
2017-07-19T09:37:08.586Z,578
2017-07-19T09:38:10.667Z,563
2017-07-19T09:39:12.727Z,499
2017-07-19T09:40:15.157Z,514
2017-07-19T09:41:17.569Z,575
2017-07-19T09:42:19.621Z,672
2017-07-19T09:43:21.692Z,650
2017-07-19T09:44:24.101Z,554
2017-07-19T09:45:26.175Z,675
2017-07-19T09:46:28.930Z,695
2017-07-19T09:47:31.351Z,638
2017-07-19T09:48:33.423Z,620
2017-07-19T09:49:35.484Z,514
2017-07-19T09:50:37.886Z,491
2017-07-19T09:51:40.308Z,704
2017-07-19T09:52:42.383Z,727
2017-07-19T09:53:44.459Z,671
2017-07-19T09:54:46.545Z,645
2017-07-19T09:55:48.633Z,593
2017-07-19T09:56:51.049Z,593
2017-07-19T09:57:53.117Z,640
2017-07-19T09:58:55.542Z,700
2017-07-19T09:59:57.621Z,627
2017-07-19T10:01:00.031Z,611
2017-07-19T10:02:02.785Z,730
2017-07-19T10:03:05.196Z,730
2017-07-19T10:04:07.294Z,628
2017-07-19T10:05:09.365Z,569
2017-07-19T10:06:11.433Z,589
2017-07-19T10:07:13.854Z,642
2017-07-19T10:08:15.915Z,634
2017-07-19T10:09:18.680Z,624
2017-07-19T10:10:20.754Z,714
2017-07-19T10:11:22.822Z,714
2017-07-19T10:12:25.231Z,615
2017-07-19T10:13:27.312Z,591
2017-07-19T10:14:29.391Z,790
2017-07-19T10:15:31.466Z,793
2017-07-19T10:16:33.893Z,670
2017-07-19T10:17:35.966Z,777
2017-07-19T10:18:38.040Z,830
2017-07-19T10:19:40.452Z,757
2017-07-19T10:20:42.535Z,748
2017-07-19T10:21:45.294Z,695
2017-07-19T10:22:47.721Z,614
2017-07-19T10:23:49.790Z,691
2017-07-19T10:24:51.880Z,761
2017-07-19T10:25:55.311Z,597
2017-07-19T10:26:57.729Z,530
2017-07-19T10:27:59.804Z,503
2017-07-19T10:29:02.235Z,530
2017-07-19T10:30:04.303Z,528
2017-07-19T10:31:06.404Z,458
2017-07-19T10:32:08.474Z,521
2017-07-19T10:33:10.553Z,512
2017-07-19T10:34:12.632Z,507
2017-07-19T10:35:14.716Z,501
2017-07-19T10:36:16.793Z,491
2017-07-19T10:37:19.235Z,439
2017-07-19T10:38:21.308Z,404
2017-07-19T10:39:23.389Z,327
2017-07-19T10:40:25.453Z,394
2017-07-19T10:41:27.534Z,396
2017-07-19T10:42:29.606Z,446
2017-07-19T10:43:31.686Z,537
2017-07-19T10:44:34.103Z,498
2017-07-19T10:45:36.175Z,479
2017-07-19T10:46:38.248Z,385
2017-07-19T10:47:40.322Z,434
2017-07-19T10:48:42.388Z,442
2017-07-19T10:49:44.481Z,506
2017-07-19T10:50:46.904Z,506
2017-07-19T10:51:48.980Z,540
2017-07-19T10:52:51.046Z,440
2017-07-19T10:53:53.132Z,433
2017-07-19T10:54:55.546Z,455
2017-07-19T10:55:57.613Z,393
2017-07-19T10:56:59.699Z,435
2017-07-19T10:58:02.481Z,502
2017-07-19T10:59:05.242Z,504
2017-07-19T11:00:07.735Z,458
2017-07-19T11:01:09.831Z,467
2017-07-19T11:02:12.370Z,531
2017-07-19T11:03:14.792Z,593
2017-07-19T11:04:17.206Z,633
2017-07-19T11:05:19.636Z,655
2017-07-19T11:06:21.708Z,689
2017-07-19T11:07:24.133Z,774
2017-07-19T11:08:26.207Z,762
2017-07-19T11:09:28.631Z,694
2017-07-19T11:10:30.699Z,565
2017-07-19T11:11:32.771Z,586
2017-07-19T11:12:35.184Z,480
2017-07-19T11:13:37.287Z,481
2017-07-19T11:14:39.688Z,452
2017-07-19T11:15:41.769Z,423
2017-07-19T11:16:44.179Z,491
2017-07-19T11:17:46.609Z,411
2017-07-19T11:18:49.021Z,402
2017-07-19T11:19:51.077Z,411
2017-07-19T11:20:53.170Z,350
2017-07-19T11:21:55.598Z,336
2017-07-19T11:22:57.662Z,347
2017-07-19T11:23:59.736Z,346
2017-07-19T11:25:01.828Z,369
2017-07-19T11:26:04.240Z,461
2017-07-19T11:27:06.658Z,428
2017-07-19T11:28:09.064Z,408
2017-07-19T11:29:11.148Z,383
2017-07-19T11:30:13.565Z,370
2017-07-19T11:31:15.628Z,380
2017-07-19T11:32:18.042Z,392
2017-07-19T11:33:20.110Z,343
2017-07-19T11:34:22.186Z,377
2017-07-19T11:35:24.258Z,390
2017-07-19T11:36:26.338Z,377
2017-07-19T11:37:28.410Z,339
2017-07-19T11:38:31.536Z,397
2017-07-19T11:39:33.641Z,397
2017-07-19T11:40:35.700Z,421
2017-07-19T11:41:37.785Z,403
2017-07-19T11:42:40.193Z,411
2017-07-19T11:43:42.274Z,409
2017-07-19T11:44:44.684Z,433
2017-07-19T11:45:47.103Z,427
2017-07-19T11:46:49.176Z,423
2017-07-19T11:47:51.229Z,437
2017-07-19T11:48:53.308Z,443
2017-07-19T11:49:55.390Z,429
2017-07-19T11:50:57.458Z,423
2017-07-19T11:51:59.536Z,400
2017-07-19T11:53:01.617Z,375
2017-07-19T11:54:03.717Z,382
2017-07-19T11:55:05.792Z,388
2017-07-19T11:56:08.555Z,412
2017-07-19T11:57:10.980Z,414
2017-07-19T11:58:13.051Z,405
2017-07-19T11:59:15.146Z,416
2017-07-19T12:00:17.215Z,405
2017-07-19T12:01:19.291Z,396
2017-07-19T12:02:22.406Z,456
2017-07-19T12:03:24.810Z,504
2017-07-19T12:04:26.907Z,482
2017-07-19T12:05:29.708Z,456
2017-07-19T12:06:32.143Z,459
2017-07-19T12:07:34.238Z,520
2017-07-19T12:08:36.321Z,714
2017-07-19T12:09:38.409Z,613
2017-07-19T12:10:40.488Z,487
2017-07-19T12:11:42.571Z,540
2017-07-19T12:12:44.926Z,563
2017-07-19T12:13:47.375Z,573
2017-07-19T12:14:49.450Z,524
2017-07-19T12:15:51.863Z,687
2017-07-19T12:16:53.945Z,655
2017-07-19T12:17:56.414Z,668
2017-07-19T12:18:58.493Z,699
2017-07-19T12:20:00.557Z,753
2017-07-19T12:21:02.660Z,667
2017-07-19T12:22:04.732Z,662
2017-07-19T12:23:07.138Z,683
2017-07-19T12:24:09.225Z,625
2017-07-19T12:25:11.303Z,814
2017-07-19T12:26:13.725Z,851
2017-07-19T12:28:18.200Z,796
2017-07-19T12:29:20.288Z,708
2017-07-19T12:30:22.371Z,616
2017-07-19T12:31:24.803Z,495
2017-07-19T12:32:26.875Z,538
2017-07-19T12:33:28.961Z,501
2017-07-19T12:34:31.034Z,404
2017-07-19T12:35:33.428Z,286
2017-07-19T12:36:35.507Z,290
2017-07-19T12:37:37.590Z,321
2017-07-19T12:38:39.665Z,400
2017-07-19T12:39:42.084Z,413
2017-07-19T12:40:44.158Z,443
2017-07-19T12:41:46.233Z,474
2017-07-19T12:42:48.297Z,462
2017-07-19T12:43:50.384Z,459
2017-07-19T12:44:52.497Z,517
2017-07-19T12:45:54.592Z,580
2017-07-19T12:46:56.677Z,640
2017-07-19T12:47:58.781Z,680
2017-07-19T12:49:00.877Z,649
2017-07-19T12:50:03.684Z,646
2017-07-19T12:51:05.756Z,653
2017-07-19T12:52:07.827Z,617
2017-07-19T12:53:10.274Z,669
2017-07-19T12:54:12.686Z,601
2017-07-19T12:55:15.110Z,553
2017-07-19T12:56:17.198Z,546
2017-07-19T12:57:19.656Z,518
2017-07-19T12:58:22.087Z,506
2017-07-19T12:59:24.170Z,479
2017-07-19T13:00:26.252Z,449
2017-07-19T13:01:28.694Z,440
2017-07-19T13:02:30.774Z,505
2017-07-19T13:03:33.210Z,545
2017-07-19T13:04:35.291Z,575
2017-07-19T13:05:37.416Z,611
2017-07-19T13:06:39.498Z,563
2017-07-19T13:07:42.388Z,468
2017-07-19T13:08:44.501Z,429
2017-07-19T13:09:46.577Z,500
2017-07-19T13:10:48.659Z,533
2017-07-19T13:11:51.087Z,491
2017-07-19T13:12:53.169Z,571
2017-07-19T13:13:55.589Z,573
2017-07-19T13:14:57.788Z,544
2017-07-19T13:15:59.882Z,497
2017-07-19T13:17:01.995Z,550
2017-07-19T13:18:04.102Z,641
2017-07-19T13:19:06.522Z,648
2017-07-19T13:20:08.961Z,572
2017-07-19T13:21:11.061Z,583
2017-07-19T13:22:13.536Z,602
2017-07-19T13:23:15.953Z,616
2017-07-19T13:24:18.488Z,594
2017-07-19T13:25:20.725Z,542
2017-07-19T13:26:23.145Z,558
2017-07-19T13:27:25.238Z,622
2017-07-19T13:28:27.334Z,593
2017-07-19T13:29:29.413Z,546
2017-07-19T13:30:31.530Z,554
2017-07-19T13:31:33.749Z,507
2017-07-19T13:32:35.827Z,546
2017-07-19T13:33:38.612Z,523
2017-07-19T13:34:40.685Z,555
2017-07-19T13:35:43.106Z,552
2017-07-19T13:36:45.187Z,498
2017-07-19T13:37:47.269Z,543
2017-07-19T13:38:49.690Z,565
2017-07-19T13:39:51.783Z,581
2017-07-19T13:40:54.553Z,520
2017-07-19T13:41:56.622Z,515
2017-07-19T13:42:58.715Z,585
2017-07-19T13:44:01.482Z,533
2017-07-19T13:45:03.892Z,475
2017-07-19T13:46:06.320Z,450
2017-07-19T13:47:09.082Z,455
2017-07-19T13:48:11.179Z,506
2017-07-19T13:49:13.266Z,572
2017-07-19T13:50:15.358Z,558
2017-07-19T13:51:17.496Z,532
2017-07-19T13:52:19.914Z,434
2017-07-19T13:53:22.005Z,396
2017-07-19T13:54:24.086Z,461
2017-07-19T13:55:26.204Z,469
2017-07-19T13:56:28.622Z,509
2017-07-19T13:57:30.695Z,484
2017-07-19T13:58:33.139Z,422
2017-07-19T13:59:35.218Z,373
2017-07-19T14:00:37.698Z,330
2017-07-19T14:01:39.791Z,416
2017-07-19T14:02:42.559Z,392
2017-07-19T14:03:44.990Z,397
2017-07-19T14:04:47.092Z,440
2017-07-19T14:05:49.172Z,426
2017-07-19T14:06:51.271Z,432
2017-07-19T14:07:53.353Z,452
2017-07-19T14:08:55.657Z,404
2017-07-19T14:09:58.412Z,415
2017-07-19T14:11:00.849Z,380
2017-07-19T14:12:03.643Z,424
2017-07-19T14:13:06.765Z,426
2017-07-19T14:14:08.866Z,424
2017-07-19T14:15:10.968Z,393
2017-07-19T14:16:13.056Z,343
2017-07-19T14:17:15.159Z,356
2017-07-19T14:18:17.242Z,326
2017-07-19T14:19:19.338Z,323
2017-07-19T14:20:21.464Z,384
2017-07-19T14:21:23.541Z,399
2017-07-19T14:22:25.627Z,400
2017-07-19T14:23:28.403Z,397
2017-07-19T14:24:30.472Z,426
2017-07-19T14:25:32.920Z,450
2017-07-19T14:26:35.014Z,429
2017-07-19T14:27:37.110Z,380
2017-07-19T14:28:39.555Z,404
2017-07-19T14:29:41.631Z,406
2017-07-19T14:30:43.715Z,409
2017-07-19T14:31:46.150Z,380
2017-07-19T14:32:48.243Z,350
2017-07-19T14:33:50.343Z,336
2017-07-19T14:34:52.425Z,347
2017-07-19T14:35:54.521Z,336
2017-07-19T14:36:56.627Z,331
2017-07-19T14:37:58.712Z,323
2017-07-19T14:39:00.827Z,289
2017-07-19T14:40:03.255Z,310
2017-07-19T14:41:06.002Z,308
2017-07-19T14:42:08.091Z,310